Time;durP1;ratioP1;P1;durP2;ratioP2;P2;SDS_P1;SDS_P2;PMS_P1;PMS_P2;Temp;Humidity;BMP_temperature;BMP_pressure;BME280_temperature;BME280_humidity;BME280_pressure;Samples;Min_cycle;Max_cycle;Signal;HPM_P1;HPM_P2
2022/04/28 00:02:11;;;;;;;6.28;3.55;;;307.40;2304.00;;;;;;5050310;28;20023;-57
2022/04/28 00:04:37;;;;;;;7.40;3.83;;;307.40;2304.00;;;;;;5050033;28;20037;-58
2022/04/28 00:07:03;;;;;;;14.73;8.18;;;307.40;2304.00;;;;;;5057310;28;20052;-56
2022/04/28 00:09:29;;;;;;;8.23;4.53;;;307.40;2304.00;;;;;;5070034;28;20037;-57
2022/04/28 00:11:54;;;;;;;5.10;3.05;;;307.50;2304.00;;;;;;5069762;28;20031;-56
2022/04/28 00:14:20;;;;;;;5.30;3.13;;;307.60;2304.00;;;;;;5069062;28;20027;-57
2022/04/28 00:16:46;;;;;;;5.28;3.58;;;307.70;2304.00;;;;;;5069841;28;20048;-57
2022/04/28 00:19:12;;;;;;;5.97;3.80;;;307.60;2304.00;;;;;;5069640;28;20074;-59
2022/04/28 00:21:39;;;;;;;6.20;3.72;;;307.60;2304.00;;;;;;5069729;28;20028;-56
2022/04/28 00:24:05;;;;;;;6.03;3.70;;;307.60;2304.00;;;;;;5069781;28;20028;-57
2022/04/28 00:26:31;;;;;;;5.40;3.67;;;307.60;2304.00;;;;;;5069797;28;20032;-55
2022/04/28 00:28:57;;;;;;;5.28;3.65;;;307.50;2304.00;;;;;;5069886;28;20024;-55
2022/04/28 00:31:22;;;;;;;5.82;3.80;;;307.60;2304.00;;;;;;5069686;28;20083;-58
2022/04/28 00:33:48;;;;;;;5.65;3.55;;;307.60;2304.00;;;;;;5069844;28;20028;-57
2022/04/28 00:36:15;;;;;;;5.45;3.30;;;307.60;2304.00;;;;;;5069472;28;20036;-57
2022/04/28 00:38:40;;;;;;;8.85;3.15;;;307.60;2304.00;;;;;;5069827;28;20522;-57
2022/04/28 00:41:07;;;;;;;4.88;3.42;;;307.50;2304.00;;;;;;5069736;28;20178;-57
2022/04/28 00:43:33;;;;;;;5.68;3.83;;;307.40;2304.00;;;;;;5069504;28;20467;-57
2022/04/28 00:45:59;;;;;;;6.75;3.80;;;307.30;2304.00;;;;;;5069546;28;20051;-57
2022/04/28 00:51:12;;;;;;;6.15;3.63;;;307.20;2304.00;;;;;;5069747;28;20032;-57
2022/04/28 00:53:51;;;;;;;7.18;3.33;;;282.50;2278.40;;;;;;5069857;28;20017;-57
2022/04/28 00:56:17;;;;;;;5.05;3.22;;;282.50;2278.40;;;;;;5069305;28;20467;-57
2022/04/28 00:58:43;;;;;;;6.07;3.13;;;282.40;2278.40;;;;;;5069475;28;20040;-55
2022/04/28 01:01:09;;;;;;;6.80;3.95;;;282.30;2278.40;;;;;;5069360;28;20048;-57
2022/04/28 01:03:35;;;;;;;8.75;4.43;;;282.30;2278.40;;;;;;5069442;28;20024;-58
2022/04/28 01:06:04;;;;;;;8.50;5.10;;;282.20;2278.40;;;;;;5069000;28;20497;-56
2022/04/28 01:08:30;;;;;;;9.20;4.70;;;282.20;2278.40;;;;;;5069323;28;20056;-57
2022/04/28 01:10:56;;;;;;;7.72;4.47;;;282.20;2278.40;;;;;;5069282;28;20021;-56
2022/04/28 01:13:23;;;;;;;6.28;3.75;;;282.30;2278.40;;;;;;5069313;28;20021;-56
2022/04/28 01:15:49;;;;;;;9.10;5.00;;;282.30;2278.40;;;;;;5069226;28;20364;-56
2022/04/28 01:18:16;;;;;;;7.55;5.13;;;282.40;2278.40;;;;;;5069143;28;20108;-56
2022/04/28 01:20:43;;;;;;;9.20;4.57;;;282.20;2278.40;;;;;;5068857;28;20467;-57
2022/04/28 01:23:09;;;;;;;8.02;4.65;;;282.50;2278.40;;;;;;5069429;28;20126;-56
2022/04/28 01:25:35;;;;;;;9.35;3.85;;;282.50;2278.40;;;;;;5070957;28;20119;-56
2022/04/28 01:28:01;;;;;;;7.05;4.03;;;282.50;2278.40;;;;;;5072944;28;20031;-57
2022/04/28 01:30:28;;;;;;;9.02;5.38;;;282.40;2278.40;;;;;;5072904;28;20390;-57
2022/04/28 01:32:58;;;;;;;7.68;4.95;;;282.40;2278.40;;;;;;5072606;28;20408;-56
2022/04/28 01:35:25;;;;;;;8.57;5.38;;;282.30;2278.40;;;;;;5072446;28;20475;-56
2022/04/28 01:37:52;;;;;;;7.70;3.95;;;282.40;2278.40;;;;;;5072600;28;20071;-57
2022/04/28 01:40:18;;;;;;;5.28;3.50;;;282.40;2278.40;;;;;;5072594;28;20032;-57
2022/04/28 01:42:45;;;;;;;10.02;5.13;;;282.40;2278.40;;;;;;5072415;28;20032;-57
2022/04/28 01:45:12;;;;;;;6.32;4.25;;;282.40;2278.40;;;;;;5072600;28;20032;-57
2022/04/28 01:47:41;;;;;;;4.93;3.58;;;282.30;2278.40;;;;;;5054104;28;20469;-56
2022/04/28 01:50:09;;;;;;;6.45;3.22;;;282.10;2278.40;;;;;;5072266;28;20036;-56
2022/04/28 01:55:19;;;;;;;4.95;3.15;;;281.90;2278.40;;;;;;5059642;28;20032;-57
2022/04/28 01:57:46;;;;;;;5.18;3.15;;;282.00;2278.40;;;;;;5052112;28;20017;-56
2022/04/28 02:00:13;;;;;;;6.07;3.72;;;282.00;2278.40;;;;;;5052157;28;20033;-56
2022/04/28 02:02:39;;;;;;;5.93;3.88;;;281.90;2278.40;;;;;;5052499;28;20492;-57
2022/04/28 02:05:06;;;;;;;7.15;2.70;;;256.90;2252.80;;;;;;5051873;28;20387;-57
2022/04/28 02:07:32;;;;;;;5.68;3.25;;;256.70;2252.80;;;;;;5051678;28;20103;-56
2022/04/28 02:09:59;;;;;;;5.07;3.63;;;256.70;2252.80;;;;;;5052233;28;20028;-55
2022/04/28 02:12:26;;;;;;;6.60;4.13;;;256.70;2252.80;;;;;;5051939;28;20033;-55
2022/04/28 02:14:52;;;;;;;6.15;3.80;;;256.80;2252.80;;;;;;5051707;28;20029;-54
2022/04/28 02:17:24;;;;;;;6.85;3.78;;;256.90;2252.80;;;;;;5051868;28;20415;-56
2022/04/28 02:19:50;;;;;;;6.03;3.42;;;256.90;2252.80;;;;;;5051816;28;20021;-56
2022/04/28 02:22:16;;;;;;;6.22;3.55;;;256.90;2252.80;;;;;;5051627;28;20108;-56
2022/04/28 02:24:42;;;;;;;6.28;3.83;;;256.90;2252.80;;;;;;5051476;28;20037;-54
2022/04/28 02:27:09;;;;;;;7.13;3.67;;;256.90;2252.80;;;;;;5051837;28;20028;-55
2022/04/28 02:29:34;;;;;;;7.50;3.70;;;256.80;2252.80;;;;;;5051552;28;20407;-55
2022/04/28 02:32:01;;;;;;;7.68;4.97;;;256.80;2252.80;;;;;;5033471;28;20029;-55
2022/04/28 02:34:27;;;;;;;7.10;3.95;;;256.90;2252.80;;;;;;5051600;28;20032;-55
2022/04/28 02:36:53;;;;;;;10.63;4.53;;;256.90;2252.80;;;;;;5050125;28;20033;-57
2022/04/28 02:39:19;;;;;;;7.20;3.55;;;256.90;2252.80;;;;;;5051615;28;20028;-56
2022/04/28 02:41:46;;;;;;;10.07;5.30;;;256.90;2252.80;;;;;;5051195;28;20028;-56
2022/04/28 02:44:13;;;;;;;5.05;2.83;;;281.70;2278.40;;;;;;5051217;28;20039;-55
2022/04/28 02:46:48;;;;;;;6.03;4.28;;;281.70;2278.40;;;;;;5051496;28;20029;-58
2022/04/28 02:49:14;;;;;;;8.68;5.78;;;281.80;2278.40;;;;;;5051161;28;20102;-55
2022/04/28 02:51:41;;;;;;;8.65;4.63;;;281.90;2278.40;;;;;;5051141;28;20041;-56
2022/04/28 02:54:07;;;;;;;8.13;4.53;;;281.90;2278.40;;;;;;5051359;28;20025;-56
2022/04/28 02:56:33;;;;;;;16.20;8.10;;;282.00;2278.40;;;;;;5051067;28;20029;-59
2022/04/28 02:58:59;;;;;;;10.43;5.15;;;282.00;2278.40;;;;;;5050955;28;20486;-57
2022/04/28 03:01:26;;;;;;;18.98;8.20;;;281.90;2278.40;;;;;;5050948;28;20044;-55
2022/04/28 03:03:52;;;;;;;9.85;5.13;;;282.00;2278.40;;;;;;5050920;28;20025;-55
2022/04/28 03:11:48;;;;;;;10.52;5.30;;;282.00;2278.40;;;;;;5051216;28;20035;-57
2022/04/28 03:14:15;;;;;;;9.95;6.32;;;282.00;2278.40;;;;;;5050528;28;20032;-56
2022/04/28 03:16:41;;;;;;;13.43;6.20;;;281.90;2278.40;;;;;;5050930;28;20029;-56
2022/04/28 03:19:07;;;;;;;17.80;9.45;;;256.50;2252.80;;;;;;5050595;28;20033;-56
2022/04/28 03:21:33;;;;;;;10.30;6.30;;;281.70;2278.40;;;;;;5050296;28;20447;-57
2022/04/28 03:23:59;;;;;;;9.65;5.82;;;281.70;2278.40;;;;;;5050441;28;20069;-55
2022/04/28 03:26:25;;;;;;;11.88;6.40;;;256.90;2252.80;;;;;;5050612;28;20048;-56
2022/04/28 03:28:52;;;;;;;11.45;6.70;;;256.90;2252.80;;;;;;5050655;28;20408;-57
2022/04/28 03:31:18;;;;;;;14.95;6.93;;;256.70;2252.80;;;;;;5050606;28;20025;-57
2022/04/28 03:33:43;;;;;;;11.25;6.72;;;256.70;2252.80;;;;;;5050496;28;20466;-57
2022/04/28 03:38:54;;;;;;;11.27;6.20;;;256.70;2252.80;;;;;;5050309;28;20147;-57
2022/04/28 03:41:20;;;;;;;6.93;4.65;;;256.70;2252.80;;;;;;5050669;28;20494;-57
2022/04/28 03:43:46;;;;;;;7.07;4.30;;;256.70;2252.80;;;;;;5050183;28;20601;-57
2022/04/28 03:46:12;;;;;;;9.80;4.95;;;256.60;2252.80;;;;;;5050336;28;20487;-56
2022/04/28 03:48:38;;;;;;;7.88;4.30;;;256.70;2252.80;;;;;;5050293;28;20025;-56
2022/04/28 03:51:04;;;;;;;8.15;3.97;;;256.70;2252.80;;;;;;5050057;28;20033;-57
2022/04/28 03:53:31;;;;;;;7.35;3.65;;;256.70;2252.80;;;;;;5050131;28;20025;-57
2022/04/28 03:55:57;;;;;;;6.55;3.72;;;256.70;2252.80;;;;;;5049948;28;20025;-57
2022/04/28 03:58:25;;;;;;;7.95;4.20;;;256.90;2252.80;;;;;;5049965;28;20025;-57
2022/04/28 04:00:51;;;;;;;5.43;3.60;;;256.90;2252.80;;;;;;5050210;28;20104;-57
2022/04/28 04:03:19;;;;;;;11.48;6.65;;;281.60;2278.40;;;;;;5050126;28;20032;-57
2022/04/28 04:05:45;;;;;;;10.60;6.03;;;281.70;2278.40;;;;;;5049637;28;20076;-55
2022/04/28 04:08:12;;;;;;;7.93;6.22;;;281.70;2278.40;;;;;;5049808;28;20068;-56
2022/04/28 04:10:37;;;;;;;8.45;4.18;;;281.80;2278.40;;;;;;5050141;28;20031;-54
2022/04/28 04:13:03;;;;;;;7.03;4.30;;;281.90;2278.40;;;;;;5049867;28;20108;-57
2022/04/28 04:15:29;;;;;;;8.10;4.72;;;281.90;2278.40;;;;;;5049973;28;20033;-56
2022/04/28 04:17:55;;;;;;;7.40;4.93;;;282.00;2278.40;;;;;;5049823;28;20021;-55
2022/04/28 04:20:21;;;;;;;8.57;4.75;;;282.00;2278.40;;;;;;5049750;28;20028;-58
2022/04/28 04:22:46;;;;;;;7.82;4.05;;;282.00;2278.40;;;;;;5049477;28;20028;-55
2022/04/28 04:25:12;;;;;;;8.00;3.83;;;282.00;2278.40;;;;;;5040107;28;20042;-57
2022/04/28 04:27:38;;;;;;;6.85;4.65;;;282.10;2278.40;;;;;;5030135;28;20053;-57
2022/04/28 04:32:17;;;;;;;6.00;4.05;;;282.30;2278.40;;;;;;5012587;28;20044;-58
2022/04/28 04:32:51;;;;;;;7.50;4.53;;;282.30;2278.40;;;;;;5029858;28;20480;-57
2022/04/28 04:35:17;;;;;;;6.15;4.10;;;282.40;2278.40;;;;;;5029635;28;20104;-59
2022/04/28 04:37:43;;;;;;;6.07;4.22;;;282.30;2278.40;;;;;;5029445;28;20064;-57
2022/04/28 04:40:11;;;;;;;5.53;3.42;;;282.40;2278.40;;;;;;5030130;28;20116;-57
2022/04/28 04:42:37;;;;;;;7.07;4.32;;;282.40;2278.40;;;;;;5039291;28;20152;-55
2022/04/28 04:45:04;;;;;;;7.75;4.47;;;282.40;2278.40;;;;;;5029758;28;20033;-58
2022/04/28 04:47:30;;;;;;;7.20;4.18;;;282.50;2278.40;;;;;;5029831;28;20484;-56
2022/04/28 04:49:55;;;;;;;6.85;3.63;;;307.20;2304.00;;;;;;5029559;28;20057;-57
2022/04/28 04:52:21;;;;;;;7.13;4.13;;;307.20;2304.00;;;;;;5029465;28;20369;-57
2022/04/28 04:54:47;;;;;;;6.13;3.97;;;307.30;2304.00;;;;;;5029671;28;20091;-57
2022/04/28 04:57:12;;;;;;;5.88;3.90;;;307.30;2304.00;;;;;;5029553;28;20022;-57
2022/04/28 04:59:38;;;;;;;5.85;3.38;;;307.40;2304.00;;;;;;5030283;28;20145;-56
2022/04/28 05:02:04;;;;;;;4.57;3.28;;;307.40;2304.00;;;;;;5033439;28;20087;-58
2022/04/28 05:04:30;;;;;;;5.50;3.55;;;307.50;2304.00;;;;;;5033431;28;20119;-57
2022/04/28 05:06:55;;;;;;;8.00;3.20;;;307.50;2304.00;;;;;;5032671;28;20053;-57
2022/04/28 05:09:21;;;;;;;6.13;3.60;;;307.70;2304.00;;;;;;5033558;28;20025;-57
2022/04/28 05:11:47;;;;;;;5.78;3.28;;;307.70;2304.00;;;;;;5032377;28;20089;-57
2022/04/28 05:14:12;;;;;;;4.68;2.83;;;307.70;2304.00;;;;;;5033014;28;20035;-58
2022/04/28 05:16:38;;;;;;;6.13;3.35;;;307.90;2304.00;;;;;;5033392;28;20084;-58
2022/04/28 05:19:04;;;;;;;8.45;3.38;;;307.90;2304.00;;;;;;5033085;28;20104;-58
2022/04/28 05:21:30;;;;;;;5.85;3.95;;;308.00;2304.00;;;;;;5032890;28;20033;-57
2022/04/28 05:23:55;;;;;;;5.63;3.20;;;308.00;2304.00;;;;;;5032848;28;20021;-58
2022/04/28 05:26:21;;;;;;;6.22;3.55;;;307.90;2304.00;;;;;;5033264;28;20483;-57
2022/04/28 05:28:47;;;;;;;8.07;3.75;;;332.80;2329.60;;;;;;5032533;28;20044;-58
2022/04/28 05:31:13;;;;;;;4.97;3.50;;;332.80;2329.60;;;;;;5032679;28;20041;-57
2022/04/28 05:33:41;;;;;;;6.47;3.78;;;332.90;2329.60;;;;;;5032850;28;20030;-57
2022/04/28 05:36:09;;;;;;;8.18;5.07;;;332.90;2329.60;;;;;;5032771;28;20026;-57
2022/04/28 05:38:36;;;;;;;6.90;3.67;;;332.90;2329.60;;;;;;5032608;28;20133;-60
2022/04/28 05:41:03;;;;;;;6.93;3.97;;;333.20;2329.60;;;;;;5032589;28;20025;-57
2022/04/28 05:46:15;;;;;;;5.03;3.30;;;333.00;2329.60;;;;;;5032832;28;20048;-57
2022/04/28 05:48:41;;;;;;;6.40;3.47;;;332.90;2329.60;;;;;;5032557;28;20456;-57
2022/04/28 05:51:06;;;;;;;5.82;3.50;;;332.90;2329.60;;;;;;5032278;28;20030;-58
2022/04/28 05:53:32;;;;;;;6.63;3.78;;;332.80;2329.60;;;;;;5032411;28;20029;-57
2022/04/28 05:55:58;;;;;;;9.07;4.50;;;333.00;2329.60;;;;;;5032411;28;20772;-55
2022/04/28 05:58:24;;;;;;;7.82;3.95;;;333.00;2329.60;;;;;;5032300;28;20033;-58
2022/04/28 06:00:49;;;;;;;9.00;4.20;;;333.00;2329.60;;;;;;5032319;28;20460;-57
2022/04/28 06:03:15;;;;;;;7.32;4.50;;;333.10;2329.60;;;;;;5014486;28;20103;-58
2022/04/28 06:05:41;;;;;;;8.48;4.07;;;333.10;2329.60;;;;;;5031998;28;20049;-57
2022/04/28 06:08:07;;;;;;;9.20;4.55;;;333.30;2329.60;;;;;;5031995;28;20120;-56
2022/04/28 06:10:32;;;;;;;7.70;4.32;;;333.30;2329.60;;;;;;5031906;28;20025;-57
2022/04/28 06:12:58;;;;;;;8.50;4.55;;;333.30;2329.60;;;;;;5032235;28;20087;-58
2022/04/28 06:15:24;;;;;;;8.05;4.38;;;333.40;2329.60;;;;;;5031883;28;20029;-58
2022/04/28 06:17:50;;;;;;;6.40;3.65;;;333.50;2329.60;;;;;;5032102;28;20535;-57
2022/04/28 06:20:15;;;;;;;5.18;3.55;;;333.70;2329.60;;;;;;5031716;28;20076;-58
2022/04/28 06:22:41;;;;;;;5.75;3.88;;;358.60;2329.60;;;;;;5031861;28;20037;-58
2022/04/28 06:25:08;;;;;;;6.80;4.30;;;358.50;2329.60;;;;;;5031901;28;20467;-58
2022/04/28 06:27:34;;;;;;;6.70;3.60;;;358.80;2329.60;;;;;;5031744;28;20072;-58
2022/04/28 06:30:00;;;;;;;5.72;3.42;;;359.00;2329.60;;;;;;5031847;28;20038;-58
2022/04/28 06:32:26;;;;;;;5.85;3.45;;;359.10;2329.60;;;;;;5031575;28;20096;-59
2022/04/28 06:34:51;;;;;;;7.00;4.53;;;359.10;2329.60;;;;;;5031868;28;20609;-57
2022/04/28 06:37:17;;;;;;;6.70;4.07;;;384.00;2329.60;;;;;;5031479;28;20567;-57
2022/04/28 06:39:43;;;;;;;6.07;3.85;;;384.00;2329.60;;;;;;5031575;28;20108;-58
2022/04/28 06:42:09;;;;;;;7.05;4.45;;;359.30;2329.60;;;;;;5031799;28;20026;-58
2022/04/28 06:44:36;;;;;;;5.30;3.38;;;359.10;2329.60;;;;;;5031330;28;20033;-59
2022/04/28 06:47:05;;;;;;;7.40;4.22;;;359.00;2329.60;;;;;;5031446;28;20037;-58
2022/04/28 06:49:32;;;;;;;7.28;3.97;;;384.00;2329.60;;;;;;5031496;28;20053;-57
2022/04/28 06:51:58;;;;;;;8.63;4.22;;;384.10;2329.60;;;;;;5031250;28;20025;-58
2022/04/28 06:54:23;;;;;;;5.28;3.38;;;384.10;2329.60;;;;;;5031074;28;20026;-60
2022/04/28 06:56:49;;;;;;;6.88;4.00;;;384.10;2329.60;;;;;;5031470;28;20017;-58
2022/04/28 06:59:15;;;;;;;5.50;3.80;;;384.10;2329.60;;;;;;5031070;28;20442;-58
2022/04/28 07:01:40;;;;;;;6.82;3.97;;;384.10;2329.60;;;;;;5030846;28;20472;-61
2022/04/28 07:04:06;;;;;;;5.00;3.22;;;384.00;2329.60;;;;;;5030921;28;20025;-61
2022/04/28 07:06:33;;;;;;;8.10;4.68;;;384.10;2329.60;;;;;;5030738;28;20061;-62
2022/04/28 07:08:59;;;;;;;5.57;3.30;;;359.30;2329.60;;;;;;5031120;28;20036;-61
2022/04/28 07:11:24;;;;;;;6.90;4.35;;;384.30;2329.60;;;;;;5030849;28;20029;-61
2022/04/28 07:13:51;;;;;;;7.72;4.00;;;384.30;2329.60;;;;;;5031030;28;20053;-59
2022/04/28 07:16:16;;;;;;;7.20;4.13;;;384.50;2329.60;;;;;;5012681;28;20575;-62
2022/04/28 07:18:42;;;;;;;5.82;4.10;;;384.60;2329.60;;;;;;5030801;28;20124;-58
2022/04/28 07:21:08;;;;;;;7.00;3.75;;;384.40;2329.60;;;;;;5030837;28;20029;-58
2022/04/28 07:23:34;;;;;;;6.78;4.00;;;384.30;2329.60;;;;;;5030135;28;20048;-58
2022/04/28 07:25:59;;;;;;;7.70;3.97;;;384.00;2329.60;;;;;;5030712;28;20029;-62
2022/04/28 07:28:25;;;;;;;7.15;4.30;;;384.00;2329.60;;;;;;5030647;28;20025;-60
2022/04/28 07:30:51;;;;;;;9.18;4.80;;;359.30;2329.60;;;;;;5030750;28;20360;-58
2022/04/28 07:33:16;;;;;;;5.50;3.90;;;359.30;2329.60;;;;;;5030358;28;20060;-61
2022/04/28 07:35:42;;;;;;;8.32;4.25;;;359.20;2329.60;;;;;;5030101;28;20061;-58
2022/04/28 07:38:08;;;;;;;8.27;4.68;;;384.00;2329.60;;;;;;5030602;28;20025;-62
2022/04/28 07:40:36;;;;;;;6.93;4.15;;;384.00;2329.60;;;;;;5030351;28;20029;-60
2022/04/28 07:43:02;;;;;;;7.35;5.25;;;359.30;2329.60;;;;;;5030578;28;20061;-56
2022/04/28 07:45:28;;;;;;;77.03;45.33;;;384.00;2329.60;;;;;;5030257;28;20033;-56
2022/04/28 07:47:54;;;;;;;10.00;7.32;;;384.30;2329.60;;;;;;5029987;28;20033;-61
2022/04/28 07:50:20;;;;;;;9.50;5.82;;;384.40;2329.60;;;;;;5030434;28;20033;-62
2022/04/28 07:52:46;;;;;;;8.18;6.00;;;384.70;2329.60;;;;;;5029989;28;20072;-59
2022/04/28 07:55:13;;;;;;;6.25;4.72;;;384.80;2329.60;;;;;;5030190;28;20026;-57
2022/04/28 07:57:39;;;;;;;6.38;4.07;;;384.90;2329.60;;;;;;5012690;28;20018;-61
2022/04/28 08:00:06;;;;;;;6.05;4.15;;;409.90;2355.20;;;;;;5030165;28;20029;-56
2022/04/28 08:02:32;;;;;;;6.55;4.47;;;410.10;2355.20;;;;;;5030126;28;20032;-62
2022/04/28 08:04:58;;;;;;;8.18;3.67;;;410.30;2355.20;;;;;;5030020;28;20116;-57
2022/04/28 08:07:24;;;;;;;6.63;4.32;;;435.20;2355.20;;;;;;5029650;28;20136;-60
2022/04/28 08:09:51;;;;;;;6.75;4.10;;;460.80;2380.80;;;;;;5029984;28;20055;-62
2022/04/28 08:12:17;;;;;;;5.85;3.78;;;538.00;1996.80;;;;;;5029808;28;20018;-62
2022/04/28 08:14:43;;;;;;;7.45;6.03;;;538.20;1843.20;;;;;;5029777;28;20021;-62
2022/04/28 08:17:08;;;;;;;6.75;5.75;;;563.50;1817.60;;;;;;5030178;28;20491;-63
2022/04/28 08:19:34;;;;;;;6.00;4.32;;;589.60;1689.60;;;;;;5029922;28;20472;-62
2022/04/28 08:22:00;;;;;;;5.38;3.50;;;588.80;1638.40;;;;;;5029996;28;20032;-61
2022/04/28 08:24:26;;;;;;;6.60;4.47;;;538.40;1740.80;;;;;;5029468;28;20026;-61
2022/04/28 08:26:54;;;;;;;6.85;4.50;;;512.50;1817.60;;;;;;5029842;28;20550;-57
2022/04/28 08:29:21;;;;;;;7.28;4.78;;;563.20;1792.00;;;;;;5029891;28;20087;-60
2022/04/28 08:31:47;;;;;;;8.48;4.32;;;538.30;1766.40;;;;;;5029681;28;20100;-63
2022/04/28 08:34:14;;;;;;;5.95;3.47;;;537.60;1817.60;;;;;;5029727;28;20121;-59
2022/04/28 08:36:41;;;;;;;7.07;4.30;;;512.60;1817.60;;;;;;5033880;28;20071;-63
2022/04/28 08:39:07;;;;;;;5.25;3.67;;;487.10;1868.80;;;;;;5033706;28;20060;-59
2022/04/28 08:41:35;;;;;;;5.53;4.00;;;487.10;1868.80;;;;;;5033514;28;20423;-61
2022/04/28 08:44:02;;;;;;;5.63;3.33;;;486.80;1945.60;;;;;;5033722;28;20026;-57
2022/04/28 08:49:14;;;;;;;5.65;3.58;;;487.10;1945.60;;;;;;5033716;28;20084;-57
2022/04/28 08:51:41;;;;;;;4.93;3.10;;;487.00;1971.20;;;;;;5033455;28;20029;-62
2022/04/28 08:54:10;;;;;;;4.72;3.42;;;486.80;1971.20;;;;;;5033380;28;20438;-57
2022/04/28 08:56:38;;;;;;;4.65;3.25;;;486.40;2022.40;;;;;;5033392;28;20428;-64
2022/04/28 08:59:04;;;;;;;5.68;3.80;;;486.40;2022.40;;;;;;5033378;28;20415;-58
2022/04/28 09:01:29;;;;;;;4.90;3.53;;;461.70;2022.40;;;;;;5033494;28;20365;-57
2022/04/28 09:03:56;;;;;;;5.75;4.40;;;486.70;1996.80;;;;;;5033131;28;20124;-59
2022/04/28 09:06:23;;;;;;;8.60;5.13;;;487.20;1971.20;;;;;;5033182;28;20124;-61
2022/04/28 09:08:51;;;;;;;6.28;3.75;;;487.30;1920.00;;;;;;5033472;28;20180;-61
2022/04/28 09:11:22;;;;;;;5.03;3.45;;;487.30;1868.80;;;;;;5014963;28;20029;-61
2022/04/28 09:14:12;;;;;;;6.20;4.68;;;512.10;1868.80;;;;;;5033232;28;20029;-62
2022/04/28 09:16:39;;;;;;;5.22;3.42;;;512.60;1843.20;;;;;;5033324;28;20113;-63
2022/04/28 09:19:04;;;;;;;4.95;3.38;;;537.80;1868.80;;;;;;5032899;28;20030;-63
2022/04/28 09:21:35;;;;;;;5.88;3.35;;;537.80;1843.20;;;;;;5033242;28;20072;-62
2022/04/28 09:24:02;;;;;;;5.35;3.85;;;538.10;1792.00;;;;;;5033135;28;20026;-61
2022/04/28 09:26:29;;;;;;;5.03;2.95;;;538.20;1792.00;;;;;;5032928;28;20452;-63
2022/04/28 09:28:55;;;;;;;5.53;4.40;;;538.30;1766.40;;;;;;5032803;28;20048;-62
2022/04/28 09:31:23;;;;;;;5.80;3.75;;;538.50;1740.80;;;;;;5032816;28;20475;-61
2022/04/28 09:33:49;;;;;;;5.50;3.65;;;538.20;1766.40;;;;;;5033053;28;20025;-62
2022/04/28 09:36:16;;;;;;;5.68;3.35;;;537.90;1792.00;;;;;;5032646;28;20115;-58
2022/04/28 09:38:42;;;;;;;5.88;3.83;;;537.80;1792.00;;;;;;5032616;28;20096;-63
2022/04/28 09:43:56;;;;;;;4.97;3.42;;;538.30;1766.40;;;;;;5032476;28;20037;-63
2022/04/28 09:46:25;;;;;;;5.07;3.75;;;538.50;1715.20;;;;;;5032040;28;20041;-59
2022/04/28 09:48:52;;;;;;;5.13;4.00;;;538.50;1715.20;;;;;;5032536;28;20029;-63
2022/04/28 09:51:22;;;;;;;5.07;3.42;;;563.20;1715.20;;;;;;5014876;28;20045;-62
2022/04/28 09:53:49;;;;;;;6.07;4.25;;;538.40;1689.60;;;;;;5032438;28;20026;-58
2022/04/28 09:56:16;;;;;;;4.28;3.22;;;538.40;1740.80;;;;;;5032149;28;20026;-61
2022/04/28 09:58:42;;;;;;;7.75;3.92;;;538.40;1715.20;;;;;;5032441;28;20017;-57
2022/04/28 10:01:08;;;;;;;5.03;3.40;;;538.20;1715.20;;;;;;5032321;28;20476;-62
2022/04/28 10:03:35;;;;;;;5.90;4.03;;;538.40;1740.80;;;;;;5032318;28;20037;-62
2022/04/28 10:06:03;;;;;;;5.70;4.47;;;538.10;1715.20;;;;;;5032271;28;20387;-64
2022/04/28 10:08:33;;;;;;;5.22;3.88;;;538.50;1689.60;;;;;;5032027;28;20053;-59
2022/04/28 10:11:01;;;;;;;9.13;5.88;;;538.20;1715.20;;;;;;5032186;28;20052;-60
2022/04/28 10:13:29;;;;;;;5.85;3.78;;;538.20;1664.00;;;;;;5031842;28;20060;-61
2022/04/28 10:16:05;;;;;;;8.98;5.50;;;538.10;1689.60;;;;;;5031823;28;20048;-62
2022/04/28 10:18:41;;;;;;;34.55;16.83;;;538.10;1689.60;;;;;;5031959;28;20472;-60
2022/04/28 10:21:11;;;;;;;7.88;5.20;;;538.50;1715.20;;;;;;5014054;28;20392;-62
2022/04/28 10:35:06;;;;;;;10.63;6.25;;;563.20;1689.60;;;;;;5031645;28;20035;-60
2022/04/28 10:37:42;;;;;;;9.38;4.70;;;538.50;1664.00;;;;;;5031379;28;20037;-62
2022/04/28 10:40:13;;;;;;;18.45;10.93;;;563.20;1689.60;;;;;;5031734;28;20025;-61
2022/04/28 10:42:39;;;;;;;10.65;6.70;;;563.20;1689.60;;;;;;5031391;28;20080;-58
2022/04/28 10:45:25;;;;;;;5.90;4.38;;;538.00;1715.20;;;;;;5031325;28;20038;-58
2022/04/28 10:48:33;;;;;;;11.43;6.90;;;538.20;1715.20;;;;;;5031561;28;20037;-63
2022/04/28 10:51:13;;;;;;;16.50;9.50;;;538.10;1715.20;;;;;;5018984;28;20488;-63
2022/04/28 10:54:04;;;;;;;9.15;5.63;;;537.90;1689.60;;;;;;5031216;28;20032;-60
2022/04/28 10:56:55;;;;;;;18.85;9.40;;;538.10;1689.60;;;;;;5031423;28;20036;-62
2022/04/28 10:59:29;;;;;;;9.32;6.38;;;538.30;1715.20;;;;;;5019362;28;20607;-61
2022/04/28 11:02:23;;;;;;;6.63;3.92;;;538.20;1715.20;;;;;;5030926;28;20048;-62
2022/04/28 11:04:51;;;;;;;;;;;538.20;1715.20;;;;;;4951334;29;20055;-64
2022/04/28 11:07:24;;;;;;;9.23;5.40;;;537.90;1740.80;;;;;;4950508;29;19923;-60
2022/04/28 11:10:02;;;;;;;6.28;4.20;;;512.90;1715.20;;;;;;4950856;29;20031;-61
2022/04/28 11:12:37;;;;;;;7.50;3.90;;;512.90;1740.80;;;;;;4950802;29;20453;-60
2022/04/28 11:15:09;;;;;;;5.85;4.40;;;512.50;1766.40;;;;;;4950334;29;20143;-62
2022/04/28 11:17:37;;;;;;;6.85;4.60;;;512.40;1766.40;;;;;;4950529;29;20497;-63
2022/04/28 11:20:12;;;;;;;13.00;6.32;;;487.30;1792.00;;;;;;4950453;29;20398;-60
2022/04/28 11:22:51;;;;;;;9.93;5.63;;;487.10;1843.20;;;;;;4950549;29;20164;-61
2022/04/28 11:25:19;;;;;;;11.90;7.10;;;487.30;1843.20;;;;;;4950218;29;20113;-57
2022/04/28 11:27:48;;;;;;;9.50;6.07;;;487.30;1817.60;;;;;;4950194;29;20482;-63
2022/04/28 11:30:17;;;;;;;6.75;5.07;;;487.30;1843.20;;;;;;4950251;29;20090;-60
2022/04/28 11:32:51;;;;;;;7.97;6.03;;;512.00;1843.20;;;;;;4950262;29;20027;-60
2022/04/28 11:35:18;;;;;;;6.93;4.75;;;512.30;1843.20;;;;;;4950055;29;20087;-60
2022/04/28 11:37:45;;;;;;;6.60;4.28;;;512.50;1817.60;;;;;;4949999;29;20035;-58
2022/04/28 11:40:16;;;;;;;7.30;4.45;;;512.70;1817.60;;;;;;4950237;29;20027;-60
2022/04/28 11:42:43;;;;;;;5.97;4.22;;;537.60;1792.00;;;;;;5022924;28;20041;-58
2022/04/28 11:45:10;;;;;;;6.57;4.28;;;537.80;1792.00;;;;;;5030490;28;20033;-58
2022/04/28 11:47:46;;;;;;;5.50;3.90;;;537.80;1766.40;;;;;;5029928;28;20017;-59
2022/04/28 11:50:30;;;;;;;6.15;3.75;;;512.90;1792.00;;;;;;5030244;28;20128;-62
2022/04/28 11:52:59;;;;;;;7.68;4.32;;;512.30;1792.00;;;;;;5029848;28;20114;-63
2022/04/28 11:55:27;;;;;;;9.15;5.20;;;486.90;1868.80;;;;;;5030051;28;20128;-57
2022/04/28 11:57:54;;;;;;;6.05;3.63;;;486.50;1920.00;;;;;;5030058;28;20029;-60
2022/04/28 12:00:25;;;;;;;5.70;3.38;;;461.40;1971.20;;;;;;5030173;28;20049;-57
2022/04/28 12:02:52;;;;;;;4.80;3.50;;;461.10;2022.40;;;;;;5030128;28;20460;-60
2022/04/28 12:05:21;;;;;;;7.10;4.07;;;461.10;2022.40;;;;;;5030059;28;20472;-57
2022/04/28 12:07:56;;;;;;;5.95;4.05;;;461.30;2048.00;;;;;;5016145;28;20042;-58
2022/04/28 12:16:08;;;;;;;6.88;4.70;;;461.50;2099.20;;;;;;5010848;28;20608;-60
2022/04/28 12:21:22;;;;;;;6.60;3.85;;;486.40;2048.00;;;;;;5010535;28;20388;-61
2022/04/28 12:23:56;;;;;;;6.35;4.97;;;486.40;2048.00;;;;;;5010216;28;20480;-57
2022/04/28 12:26:26;;;;;;;8.50;5.22;;;461.50;2099.20;;;;;;5010198;28;20124;-57
2022/04/28 12:28:53;;;;;;;5.78;4.80;;;461.40;2124.80;;;;;;4993129;28;20021;-59
2022/04/28 12:31:27;;;;;;;6.93;4.18;;;461.40;2099.20;;;;;;5010200;28;20427;-58
2022/04/28 12:33:54;;;;;;;8.43;5.38;;;461.30;2150.40;;;;;;5009997;28;20026;-58
2022/04/28 12:36:20;;;;;;;12.25;6.43;;;461.10;2176.00;;;;;;5010232;28;20346;-61
2022/04/28 12:38:49;;;;;;;11.95;6.50;;;460.80;2278.40;;;;;;5009876;28;20501;-62
2022/04/28 12:41:21;;;;;;;7.72;5.45;;;435.90;2355.20;;;;;;5009819;28;20037;-62
2022/04/28 12:43:50;;;;;;;10.82;6.43;;;435.90;2355.20;;;;;;5009854;28;20026;-59
2022/04/28 12:46:37;;;;;;;7.85;6.07;;;435.90;2355.20;;;;;;5009925;28;20057;-59
2022/04/28 12:49:08;;;;;;;6.78;4.95;;;435.90;2355.20;;;;;;5009853;28;20026;-60
2022/04/28 12:51:53;;;;;;;8.57;5.25;;;435.90;2355.20;;;;;;5009891;28;20031;-61
2022/04/28 12:54:22;;;;;;;7.82;5.18;;;435.90;2355.20;;;;;;5009969;28;20064;-61
2022/04/28 12:57:06;;;;;;;10.07;6.00;;;460.80;2380.80;;;;;;5010080;28;20033;-57
2022/04/28 12:59:32;;;;;;;;;;;461.30;2380.80;;;;;;5010202;28;20030;-62
2022/04/28 13:01:58;;;;;;;10.30;4.68;;;461.50;2380.80;;;;;;5009906;28;20012;-60